H.kanter — ESUB — position and weather

sailwx.info

Track history (hours):
 
Tides and Currents Weather Stations Pressure Air Temp Water Temp Dewpoint Dewpoint Depression Visibility Wind Speed Wind Dir Waves Ship Positions

H.kanter

Last reported at 2016-Nov-30 22:33 UTC. Time now 2016-Dec-07 20:24 UTC.
Position N 59°35' E 024°49'.

Length 33 m; draft 4.8 m.

Type: Tug. MMSI: 276504000.

Date/timePositionNaut miles runAvg speedWind from/ knotsBaromVisibWave heightAir tempDewpointWater temp
2016-Nov-30 22:33N 59°35' E 024°49'5 4.9
2016-Nov-30 21:33N 59°31' E 024°44'4 4.4
2016-Nov-30 20:33N 59°28' E 024°39'0 0.2
2016-Nov-30 19:33N 59°27' E 024°39'0 0.1
2016-Nov-30 18:33N 59°27' E 024°39'1 0.8
2016-Nov-30 17:33N 59°28' E 024°38'10 9.6
2016-Nov-30 16:32N 59°38' E 024°40'9 9.3
2016-Nov-30 15:33N 59°32' E 024°55'  
2016-Nov-27 17:33N 59°35' E 024°52'9 9.0
2016-Nov-27 16:33N 59°38' E 024°35'8 1.1
2016-Nov-27 09:33N 59°35' E 024°21'10 9.3
2016-Nov-27 08:31N 59°38' E 024°39'9 9.1
2016-Nov-27 07:33N 59°34' E 024°54'  
Track history (hours):
 
Tides and Currents Weather Stations Pressure Air Temp Water Temp Dewpoint Dewpoint Depression Visibility Wind Speed Wind Dir Waves Ship Positions

H.kanter

Last reported at 2016-Nov-30 22:33 UTC. Time now 2016-Dec-07 20:24 UTC.
Position N 59°35' E 024°49'.

Length 33 m; draft 4.8 m.

Type: Tug. MMSI: 276504000.

Date/timePositionNaut miles runAvg speedWind from/ knotsBaromVisibWave heightAir tempDewpointWater temp
2016-Nov-30 22:33N 59°35' E 024°49'5 4.9
2016-Nov-30 21:33N 59°31' E 024°44'4 4.4
2016-Nov-30 20:33N 59°28' E 024°39'0 0.2
2016-Nov-30 19:33N 59°27' E 024°39'0 0.1
2016-Nov-30 18:33N 59°27' E 024°39'1 0.8
2016-Nov-30 17:33N 59°28' E 024°38'10 9.6
2016-Nov-30 16:32N 59°38' E 024°40'9 9.3
2016-Nov-30 15:33N 59°32' E 024°55'  
2016-Nov-27 17:33N 59°35' E 024°52'9 9.0
2016-Nov-27 16:33N 59°38' E 024°35'8 1.1
2016-Nov-27 09:33N 59°35' E 024°21'10 9.3
2016-Nov-27 08:31N 59°38' E 024°39'9 9.1
2016-Nov-27 07:33N 59°34' E 024°54'  

Dump ship's entire track history